sensor_id;sensor_type;location;lat;lon;timestamp;pressure;altitude;pressure_sealevel;temperature;humidity
40982;BME280;26708;50.304;19.028;2022-11-15T00:02:04;98712.75;;;8.54;80.62
40982;BME280;26708;50.304;19.028;2022-11-15T00:05:23;98711.09;;;8.57;80.33
40982;BME280;26708;50.304;19.028;2022-11-15T00:08:43;98693.66;;;8.52;80.33
40982;BME280;26708;50.304;19.028;2022-11-15T00:12:03;98724.34;;;8.71;80.70
40982;BME280;26708;50.304;19.028;2022-11-15T00:15:22;98716.56;;;8.71;79.97
40982;BME280;26708;50.304;19.028;2022-11-15T00:18:43;98698.25;;;8.65;79.92
40982;BME280;26708;50.304;19.028;2022-11-15T00:22:02;98700.00;;;8.64;79.08
40982;BME280;26708;50.304;19.028;2022-11-15T00:25:21;98709.63;;;8.71;79.20
40982;BME280;26708;50.304;19.028;2022-11-15T00:28:41;98702.59;;;8.64;79.19
40982;BME280;26708;50.304;19.028;2022-11-15T00:32:01;98700.66;;;8.56;78.95
40982;BME280;26708;50.304;19.028;2022-11-15T00:35:20;98688.47;;;8.52;79.33
40982;BME280;26708;50.304;19.028;2022-11-15T00:38:40;98680.69;;;8.52;79.17
40982;BME280;26708;50.304;19.028;2022-11-15T00:42:00;98679.59;;;8.41;79.50
40982;BME280;26708;50.304;19.028;2022-11-15T00:45:19;98662.03;;;8.28;79.60
40982;BME280;26708;50.304;19.028;2022-11-15T00:48:39;98659.53;;;8.31;79.93
40982;BME280;26708;50.304;19.028;2022-11-15T00:51:58;98660.34;;;8.28;79.67
40982;BME280;26708;50.304;19.028;2022-11-15T00:55:18;98675.94;;;8.31;79.59
40982;BME280;26708;50.304;19.028;2022-11-15T00:58:38;98676.88;;;8.33;79.67
40982;BME280;26708;50.304;19.028;2022-11-15T01:01:57;98671.59;;;8.30;79.46
40982;BME280;26708;50.304;19.028;2022-11-15T01:05:17;98666.28;;;8.24;80.06
40982;BME280;26708;50.304;19.028;2022-11-15T01:08:36;98668.16;;;8.30;79.97
40982;BME280;26708;50.304;19.028;2022-11-15T01:11:55;98660.34;;;8.28;79.75
40982;BME280;26708;50.304;19.028;2022-11-15T01:15:15;98669.84;;;8.29;79.38
40982;BME280;26708;50.304;19.028;2022-11-15T01:18:34;98650.53;;;8.17;79.29
40982;BME280;26708;50.304;19.028;2022-11-15T01:21:53;98654.13;;;8.20;79.53
40982;BME280;26708;50.304;19.028;2022-11-15T01:25:13;98660.16;;;8.19;79.60
40982;BME280;26708;50.304;19.028;2022-11-15T01:28:34;98659.09;;;8.13;79.89
40982;BME280;26708;50.304;19.028;2022-11-15T01:31:53;98643.53;;;8.13;79.68
40982;BME280;26708;50.304;19.028;2022-11-15T01:35:13;98642.59;;;8.08;79.80
40982;BME280;26708;50.304;19.028;2022-11-15T01:38:32;98641.69;;;8.06;79.51
40982;BME280;26708;50.304;19.028;2022-11-15T01:41:52;98623.34;;;7.98;79.84
40982;BME280;26708;50.304;19.028;2022-11-15T01:45:15;98622.28;;;7.87;79.56
40982;BME280;26708;50.304;19.028;2022-11-15T01:48:35;98612.56;;;7.79;80.08
40982;BME280;26708;50.304;19.028;2022-11-15T01:51:56;98634.28;;;7.84;80.24
40982;BME280;26708;50.304;19.028;2022-11-15T01:55:22;98619.50;;;7.80;80.96
40982;BME280;26708;50.304;19.028;2022-11-15T01:58:42;98623.13;;;7.86;80.60
40982;BME280;26708;50.304;19.028;2022-11-15T02:02:02;98621.41;;;7.88;80.59
40982;BME280;26708;50.304;19.028;2022-11-15T02:05:22;98604.03;;;7.83;80.24
40982;BME280;26708;50.304;19.028;2022-11-15T02:08:42;98612.75;;;7.88;80.24
40982;BME280;26708;50.304;19.028;2022-11-15T02:12:02;98611.06;;;7.88;79.49
40982;BME280;26708;50.304;19.028;2022-11-15T02:15:21;98594.44;;;7.79;79.17
40982;BME280;26708;50.304;19.028;2022-11-15T02:18:52;98595.44;;;7.85;79.47
40982;BME280;26708;50.304;19.028;2022-11-15T02:26:24;98589.44;;;7.88;79.32
40982;BME280;26708;50.304;19.028;2022-11-15T02:33:36;98581.38;;;7.74;78.71
40982;BME280;26708;50.304;19.028;2022-11-15T02:37:15;98591.53;;;7.65;78.97
40982;BME280;26708;50.304;19.028;2022-11-15T02:41:15;98593.06;;;7.56;79.33
40982;BME280;26708;50.304;19.028;2022-11-15T02:44:43;98582.63;;;7.53;79.81
40982;BME280;26708;50.304;19.028;2022-11-15T02:48:06;98574.16;;;7.60;80.00
40982;BME280;26708;50.304;19.028;2022-11-15T02:51:26;98570.06;;;7.71;79.93
40982;BME280;26708;50.304;19.028;2022-11-15T02:55:00;98566.72;;;7.75;79.49
40982;BME280;26708;50.304;19.028;2022-11-15T03:05:38;98550.47;;;7.83;78.28
40982;BME280;26708;50.304;19.028;2022-11-15T03:09:07;98539.00;;;7.71;78.20
40982;BME280;26708;50.304;19.028;2022-11-15T03:12:51;98558.06;;;7.74;78.35
40982;BME280;26708;50.304;19.028;2022-11-15T03:19:54;98553.66;;;7.70;78.58
40982;BME280;26708;50.304;19.028;2022-11-15T03:23:15;98560.56;;;7.70;79.11
40982;BME280;26708;50.304;19.028;2022-11-15T03:26:36;98532.72;;;7.60;78.95
40982;BME280;26708;50.304;19.028;2022-11-15T03:30:05;98523.97;;;7.55;78.63
40982;BME280;26708;50.304;19.028;2022-11-15T03:33:25;98537.91;;;7.60;78.72
40982;BME280;26708;50.304;19.028;2022-11-15T03:36:47;98532.78;;;7.63;79.40
40982;BME280;26708;50.304;19.028;2022-11-15T03:40:09;98524.13;;;7.62;79.54
40982;BME280;26708;50.304;19.028;2022-11-15T03:43:42;98525.94;;;7.66;79.39
40982;BME280;26708;50.304;19.028;2022-11-15T03:47:17;98524.25;;;7.67;79.42
40982;BME280;26708;50.304;19.028;2022-11-15T03:50:40;98513.72;;;7.59;79.29
40982;BME280;26708;50.304;19.028;2022-11-15T03:54:03;98517.00;;;7.52;79.50
40982;BME280;26708;50.304;19.028;2022-11-15T03:57:23;98499.69;;;7.48;79.75
40982;BME280;26708;50.304;19.028;2022-11-15T04:00:42;98510.19;;;7.56;80.09
40982;BME280;26708;50.304;19.028;2022-11-15T04:04:02;98502.41;;;7.56;80.12
40982;BME280;26708;50.304;19.028;2022-11-15T04:07:21;98505.19;;;7.63;79.91
40982;BME280;26708;50.304;19.028;2022-11-15T04:10:40;98504.25;;;7.60;79.28
40982;BME280;26708;50.304;19.028;2022-11-15T04:14:00;98469.38;;;7.44;79.03
40982;BME280;26708;50.304;19.028;2022-11-15T04:17:19;98491.34;;;7.63;78.83
40982;BME280;26708;50.304;19.028;2022-11-15T04:20:39;98488.75;;;7.63;78.55
40982;BME280;26708;50.304;19.028;2022-11-15T04:24:17;98487.16;;;7.69;78.57
40982;BME280;26708;50.304;19.028;2022-11-15T04:27:36;98469.84;;;7.67;78.40
40982;BME280;26708;50.304;19.028;2022-11-15T04:30:55;98482.13;;;7.78;78.29
40982;BME280;26708;50.304;19.028;2022-11-15T04:34:15;98442.09;;;7.61;77.89
40982;BME280;26708;50.304;19.028;2022-11-15T04:37:34;98468.41;;;7.82;77.89
40982;BME280;26708;50.304;19.028;2022-11-15T04:40:53;98463.31;;;7.87;78.17
40982;BME280;26708;50.304;19.028;2022-11-15T04:44:13;98478.00;;;7.86;77.39
40982;BME280;26708;50.304;19.028;2022-11-15T04:47:32;98479.66;;;7.83;77.49
40982;BME280;26708;50.304;19.028;2022-11-15T04:50:51;98474.53;;;7.86;77.46
40982;BME280;26708;50.304;19.028;2022-11-15T04:54:11;98459.00;;;7.86;77.69
40982;BME280;26708;50.304;19.028;2022-11-15T04:57:30;98452.84;;;7.81;77.60
40982;BME280;26708;50.304;19.028;2022-11-15T05:00:49;98461.59;;;7.86;77.82
40982;BME280;26708;50.304;19.028;2022-11-15T05:04:09;98447.69;;;7.82;77.09
40982;BME280;26708;50.304;19.028;2022-11-15T05:07:40;98442.50;;;7.82;77.39
40982;BME280;26708;50.304;19.028;2022-11-15T05:11:00;98445.09;;;7.82;77.42
40982;BME280;26708;50.304;19.028;2022-11-15T05:14:19;98447.66;;;7.81;77.40
40982;BME280;26708;50.304;19.028;2022-11-15T05:17:38;98444.16;;;7.79;77.61
40982;BME280;26708;50.304;19.028;2022-11-15T05:21:05;98441.56;;;7.79;78.15
40982;BME280;26708;50.304;19.028;2022-11-15T05:24:24;98438.94;;;7.76;78.04
40982;BME280;26708;50.304;19.028;2022-11-15T05:27:44;98424.97;;;7.68;77.84
40982;BME280;26708;50.304;19.028;2022-11-15T05:31:14;98431.97;;;7.73;77.89
40982;BME280;26708;50.304;19.028;2022-11-15T05:34:35;98425.81;;;7.68;78.21
40982;BME280;26708;50.304;19.028;2022-11-15T05:37:54;98420.53;;;7.62;78.02
40982;BME280;26708;50.304;19.028;2022-11-15T05:41:15;98421.19;;;7.52;78.21
40982;BME280;26708;50.304;19.028;2022-11-15T05:44:36;98416.69;;;7.42;77.94
40982;BME280;26708;50.304;19.028;2022-11-15T05:47:57;98409.63;;;7.35;78.59
40982;BME280;26708;50.304;19.028;2022-11-15T05:51:19;98410.38;;;7.30;78.65
40982;BME280;26708;50.304;19.028;2022-11-15T05:54:40;98405.22;;;7.30;78.81
40982;BME280;26708;50.304;19.028;2022-11-15T05:58:00;98396.53;;;7.28;78.95
40982;BME280;26708;50.304;19.028;2022-11-15T06:01:20;98406.25;;;7.39;78.95
40982;BME280;26708;50.304;19.028;2022-11-15T06:04:40;98403.69;;;7.41;78.95
40982;BME280;26708;50.304;19.028;2022-11-15T06:08:00;98394.06;;;7.34;78.78
40982;BME280;26708;50.304;19.028;2022-11-15T06:11:19;98405.94;;;7.23;79.04
40982;BME280;26708;50.304;19.028;2022-11-15T06:14:39;98348.88;;;6.77;78.71
40982;BME280;26708;50.304;19.028;2022-11-15T06:17:58;98417.84;;;7.17;79.62
40982;BME280;26708;50.304;19.028;2022-11-15T06:21:17;98392.28;;;6.90;80.05
40982;BME280;26708;50.304;19.028;2022-11-15T06:24:37;98426.25;;;7.05;79.85
40982;BME280;26708;50.304;19.028;2022-11-15T06:27:57;98423.44;;;6.95;79.72
40982;BME280;26708;50.304;19.028;2022-11-15T06:31:17;98413.75;;;6.86;80.18
40982;BME280;26708;50.304;19.028;2022-11-15T06:34:37;98417.47;;;6.99;80.69
40982;BME280;26708;50.304;19.028;2022-11-15T06:38:02;98433.22;;;7.09;79.99
40982;BME280;26708;50.304;19.028;2022-11-15T06:41:21;98430.50;;;7.03;79.95
40982;BME280;26708;50.304;19.028;2022-11-15T06:44:40;98445.28;;;7.09;79.77
40982;BME280;26708;50.304;19.028;2022-11-15T06:48:00;98436.59;;;7.05;80.03
40982;BME280;26708;50.304;19.028;2022-11-15T06:51:19;98435.66;;;7.03;79.99
40982;BME280;26708;50.304;19.028;2022-11-15T06:54:39;98442.88;;;7.16;80.26
40982;BME280;26708;50.304;19.028;2022-11-15T06:57:58;98443.91;;;7.24;79.65
40982;BME280;26708;50.304;19.028;2022-11-15T07:01:17;98440.66;;;7.32;79.48
40982;BME280;26708;50.304;19.028;2022-11-15T07:04:37;98425.22;;;7.38;79.63
40982;BME280;26708;50.304;19.028;2022-11-15T07:07:57;98428.91;;;7.51;78.84
40982;BME280;26708;50.304;19.028;2022-11-15T07:11:16;98435.22;;;7.62;78.58
40982;BME280;26708;50.304;19.028;2022-11-15T07:14:36;98436.19;;;7.68;78.69
40982;BME280;26708;50.304;19.028;2022-11-15T07:17:55;98427.66;;;7.72;78.39
40982;BME280;26708;50.304;19.028;2022-11-15T07:21:14;98435.50;;;7.77;77.90
40982;BME280;26708;50.304;19.028;2022-11-15T07:24:33;98430.44;;;7.83;77.27
40982;BME280;26708;50.304;19.028;2022-11-15T07:27:59;98425.06;;;7.74;77.20
40982;BME280;26708;50.304;19.028;2022-11-15T07:31:19;98418.03;;;7.67;77.64
40982;BME280;26708;50.304;19.028;2022-11-15T07:34:38;98409.44;;;7.68;77.69
40982;BME280;26708;50.304;19.028;2022-11-15T07:38:02;98422.44;;;7.71;76.89
40982;BME280;26708;50.304;19.028;2022-11-15T07:41:21;98427.41;;;7.60;77.86
40982;BME280;26708;50.304;19.028;2022-11-15T07:44:41;98425.78;;;7.65;77.88
40982;BME280;26708;50.304;19.028;2022-11-15T07:48:01;98406.69;;;7.60;78.32
40982;BME280;26708;50.304;19.028;2022-11-15T07:51:21;98399.16;;;7.74;78.70
40982;BME280;26708;50.304;19.028;2022-11-15T07:54:40;98402.81;;;7.83;77.61
40982;BME280;26708;50.304;19.028;2022-11-15T07:58:01;98381.94;;;7.76;77.75
40982;BME280;26708;50.304;19.028;2022-11-15T08:01:20;98422.06;;;7.97;77.53
40982;BME280;26708;50.304;19.028;2022-11-15T08:04:40;98398.59;;;7.88;77.84
40982;BME280;26708;50.304;19.028;2022-11-15T08:07:59;98413.59;;;8.06;77.90
40982;BME280;26708;50.304;19.028;2022-11-15T08:11:19;98396.19;;;7.99;77.35
40982;BME280;26708;50.304;19.028;2022-11-15T08:14:38;98413.69;;;8.12;77.73
40982;BME280;26708;50.304;19.028;2022-11-15T08:18:02;98410.38;;;8.19;77.32
40982;BME280;26708;50.304;19.028;2022-11-15T08:21:22;98401.56;;;8.11;77.22
40982;BME280;26708;50.304;19.028;2022-11-15T08:24:42;98398.78;;;8.00;77.23
40982;BME280;26708;50.304;19.028;2022-11-15T08:28:04;98402.38;;;8.08;77.91
40982;BME280;26708;50.304;19.028;2022-11-15T08:31:24;98394.78;;;8.17;78.08
40982;BME280;26708;50.304;19.028;2022-11-15T08:34:43;98405.22;;;8.20;77.79
40982;BME280;26708;50.304;19.028;2022-11-15T08:38:03;98398.53;;;8.33;78.58
40982;BME280;26708;50.304;19.028;2022-11-15T08:41:35;98395.34;;;8.50;77.94
40982;BME280;26708;50.304;19.028;2022-11-15T08:44:55;98389.47;;;8.62;78.00
40982;BME280;26708;50.304;19.028;2022-11-15T08:48:15;98392.19;;;8.68;76.94
40982;BME280;26708;50.304;19.028;2022-11-15T08:51:34;98399.28;;;8.81;77.43
40982;BME280;26708;50.304;19.028;2022-11-15T08:54:53;98378.47;;;8.78;77.51
40982;BME280;26708;50.304;19.028;2022-11-15T08:58:12;98388.22;;;8.94;77.64
40982;BME280;26708;50.304;19.028;2022-11-15T09:01:32;98392.75;;;9.07;77.34
40982;BME280;26708;50.304;19.028;2022-11-15T09:04:51;98379.00;;;9.17;77.20
40982;BME280;26708;50.304;19.028;2022-11-15T09:08:11;98386.94;;;9.29;78.02
40982;BME280;26708;50.304;19.028;2022-11-15T09:11:32;98381.03;;;9.40;77.22
40982;BME280;26708;50.304;19.028;2022-11-15T09:14:51;98363.81;;;9.50;77.25
40982;BME280;26708;50.304;19.028;2022-11-15T09:18:11;98365.69;;;9.61;77.36
40982;BME280;26708;50.304;19.028;2022-11-15T09:21:33;98363.09;;;9.64;77.41
40982;BME280;26708;50.304;19.028;2022-11-15T09:24:52;98364.09;;;9.74;77.12
40982;BME280;26708;50.304;19.028;2022-11-15T09:28:12;98341.56;;;9.74;76.51
40982;BME280;26708;50.304;19.028;2022-11-15T09:31:32;98334.75;;;9.87;76.33
40982;BME280;26708;50.304;19.028;2022-11-15T09:34:51;98336.63;;;10.01;76.99
40982;BME280;26708;50.304;19.028;2022-11-15T09:38:11;98342.81;;;10.14;75.94
40982;BME280;26708;50.304;19.028;2022-11-15T09:48:55;98316.22;;;10.51;75.51
40982;BME280;26708;50.304;19.028;2022-11-15T09:52:27;98300.66;;;10.57;75.74
40982;BME280;26708;50.304;19.028;2022-11-15T09:55:37;98309.44;;;10.77;75.63
40982;BME280;26708;50.304;19.028;2022-11-15T09:59:11;98306.03;;;10.90;74.85
40982;BME280;26708;50.304;19.028;2022-11-15T10:02:22;98286.13;;;11.02;74.53
40982;BME280;26708;50.304;19.028;2022-11-15T10:05:28;98287.94;;;11.12;74.42
40982;BME280;26708;50.304;19.028;2022-11-15T10:08:54;98275.81;;;11.20;73.59
40982;BME280;26708;50.304;19.028;2022-11-15T10:11:55;98242.75;;;11.06;73.09
40982;BME280;26708;50.304;19.028;2022-11-15T10:15:06;98277.56;;;11.37;73.19
40982;BME280;26708;50.304;19.028;2022-11-15T10:18:18;98280.19;;;11.46;73.30
40982;BME280;26708;50.304;19.028;2022-11-15T10:21:29;98275.91;;;11.65;72.65
40982;BME280;26708;50.304;19.028;2022-11-15T10:24:37;98244.63;;;11.65;71.94
40982;BME280;26708;50.304;19.028;2022-11-15T10:27:41;98269.88;;;11.97;72.22
40982;BME280;26708;50.304;19.028;2022-11-15T10:30:46;98268.13;;;12.17;71.51
40982;BME280;26708;50.304;19.028;2022-11-15T10:33:48;98247.22;;;12.23;70.18
40982;BME280;26708;50.304;19.028;2022-11-15T10:36:59;98228.97;;;12.25;69.47
40982;BME280;26708;50.304;19.028;2022-11-15T10:40:04;98269.81;;;12.57;70.45
40982;BME280;26708;50.304;19.028;2022-11-15T10:46:21;98247.06;;;12.82;68.91
40982;BME280;26708;50.304;19.028;2022-11-15T10:49:25;98255.75;;;13.02;68.48
40982;BME280;26708;50.304;19.028;2022-11-15T10:52:27;98228.75;;;13.03;67.60
40982;BME280;26708;50.304;19.028;2022-11-15T10:55:33;98243.47;;;13.22;67.69
40982;BME280;26708;50.304;19.028;2022-11-15T10:58:41;98241.66;;;13.33;67.20
40982;BME280;26708;50.304;19.028;2022-11-15T11:01:46;98239.88;;;13.38;66.78
40982;BME280;26708;50.304;19.028;2022-11-15T11:04:51;98232.91;;;13.40;66.40
40982;BME280;26708;50.304;19.028;2022-11-15T11:08:01;98245.06;;;13.45;66.80
40982;BME280;26708;50.304;19.028;2022-11-15T11:11:04;98241.59;;;13.45;66.38
40982;BME280;26708;50.304;19.028;2022-11-15T11:14:15;98233.75;;;13.45;67.03
40982;BME280;26708;50.304;19.028;2022-11-15T11:17:48;98231.97;;;13.45;67.00
40982;BME280;26708;50.304;19.028;2022-11-15T11:21:01;98218.97;;;13.38;67.24
40982;BME280;26708;50.304;19.028;2022-11-15T11:27:59;98225.91;;;13.43;67.32
40982;BME280;26708;50.304;19.028;2022-11-15T11:41:43;98202.31;;;13.51;67.12
40982;BME280;26708;50.304;19.028;2022-11-15T11:48:25;98194.38;;;13.61;66.63
40982;BME280;26708;50.304;19.028;2022-11-15T11:55:23;98173.41;;;13.69;66.38
40982;BME280;26708;50.304;19.028;2022-11-15T11:58:34;98158.56;;;13.69;65.82
40982;BME280;26708;50.304;19.028;2022-11-15T12:01:41;98166.19;;;13.93;65.58
40982;BME280;26708;50.304;19.028;2022-11-15T12:04:47;98168.72;;;14.05;65.32
40982;BME280;26708;50.304;19.028;2022-11-15T12:07:53;98159.88;;;14.17;64.48
40982;BME280;26708;50.304;19.028;2022-11-15T12:14:16;98157.97;;;14.35;63.08
40982;BME280;26708;50.304;19.028;2022-11-15T12:17:28;98156.13;;;14.43;63.11
40982;BME280;26708;50.304;19.028;2022-11-15T12:20:40;98156.06;;;14.49;62.88
40982;BME280;26708;50.304;19.028;2022-11-15T12:27:31;98135.81;;;14.62;62.75
40982;BME280;26708;50.304;19.028;2022-11-15T12:30:44;98114.09;;;14.54;62.58
40982;BME280;26708;50.304;19.028;2022-11-15T12:33:47;98134.84;;;14.69;62.26
40982;BME280;26708;50.304;19.028;2022-11-15T12:36:50;98129.56;;;14.72;61.93
40982;BME280;26708;50.304;19.028;2022-11-15T12:52:30;98108.59;;;14.72;62.19
40982;BME280;26708;50.304;19.028;2022-11-15T12:55:32;98115.50;;;14.77;62.14
40982;BME280;26708;50.304;19.028;2022-11-15T13:01:58;98086.81;;;14.70;61.92
40982;BME280;26708;50.304;19.028;2022-11-15T13:08:48;98079.69;;;14.78;61.75
40982;BME280;26708;50.304;19.028;2022-11-15T13:11:51;98091.78;;;14.88;62.00
40982;BME280;26708;50.304;19.028;2022-11-15T13:17:54;98083.91;;;14.89;61.80
40982;BME280;26708;50.304;19.028;2022-11-15T13:20:55;98085.63;;;14.90;61.90
40982;BME280;26708;50.304;19.028;2022-11-15T13:23:57;98052.69;;;14.73;61.39
40982;BME280;26708;50.304;19.028;2022-11-15T13:26:58;98076.00;;;14.91;62.02
40982;BME280;26708;50.304;19.028;2022-11-15T13:29:58;98066.56;;;14.79;62.72
40982;BME280;26708;50.304;19.028;2022-11-15T13:33:14;98083.91;;;14.89;62.31
40982;BME280;26708;50.304;19.028;2022-11-15T13:36:22;98084.78;;;14.88;62.16
40982;BME280;26708;50.304;19.028;2022-11-15T13:39:34;98069.97;;;14.86;62.54
40982;BME280;26708;50.304;19.028;2022-11-15T13:42:36;98065.63;;;14.83;62.91
40982;BME280;26708;50.304;19.028;2022-11-15T13:45:37;98063.09;;;14.77;62.57
40982;BME280;26708;50.304;19.028;2022-11-15T13:48:40;98063.91;;;14.81;63.27
40982;BME280;26708;50.304;19.028;2022-11-15T13:51:45;98061.34;;;14.78;63.09
40982;BME280;26708;50.304;19.028;2022-11-15T13:54:57;98021.53;;;14.53;63.01
40982;BME280;26708;50.304;19.028;2022-11-15T13:58:02;98057.97;;;14.70;63.10
40982;BME280;26708;50.304;19.028;2022-11-15T14:01:06;98050.22;;;14.62;63.38
40982;BME280;26708;50.304;19.028;2022-11-15T14:04:19;98046.75;;;14.62;63.96
40982;BME280;26708;50.304;19.028;2022-11-15T14:07:22;98049.38;;;14.62;63.80
40982;BME280;26708;50.304;19.028;2022-11-15T14:10:35;98051.09;;;14.61;64.09
40982;BME280;26708;50.304;19.028;2022-11-15T14:13:36;98052.91;;;14.58;64.36
40982;BME280;26708;50.304;19.028;2022-11-15T14:19:42;98030.34;;;14.49;64.11
40982;BME280;26708;50.304;19.028;2022-11-15T14:22:52;98020.75;;;14.45;64.40
40982;BME280;26708;50.304;19.028;2022-11-15T14:25:57;98036.38;;;14.53;64.19
40982;BME280;26708;50.304;19.028;2022-11-15T14:32:27;98032.16;;;14.43;64.59
40982;BME280;26708;50.304;19.028;2022-11-15T14:35:28;98039.94;;;14.47;64.72
40982;BME280;26708;50.304;19.028;2022-11-15T14:38:29;98007.03;;;14.30;64.98
40982;BME280;26708;50.304;19.028;2022-11-15T14:41:34;98011.31;;;14.35;65.11
40982;BME280;26708;50.304;19.028;2022-11-15T14:44:38;98028.69;;;14.41;64.71
40982;BME280;26708;50.304;19.028;2022-11-15T14:47:38;98019.13;;;14.38;64.89
40982;BME280;26708;50.304;19.028;2022-11-15T14:50:40;98011.34;;;14.32;65.29
40982;BME280;26708;50.304;19.028;2022-11-15T14:53:41;98013.94;;;14.32;65.23
40982;BME280;26708;50.304;19.028;2022-11-15T14:56:42;97961.06;;;14.05;65.60
40982;BME280;26708;50.304;19.028;2022-11-15T14:59:43;98005.25;;;14.32;65.75
40982;BME280;26708;50.304;19.028;2022-11-15T15:02:45;97998.28;;;14.29;65.50
40982;BME280;26708;50.304;19.028;2022-11-15T15:05:46;97970.56;;;14.13;65.91
40982;BME280;26708;50.304;19.028;2022-11-15T15:08:47;97975.75;;;14.18;65.58
40982;BME280;26708;50.304;19.028;2022-11-15T15:11:50;97996.59;;;14.25;66.33
40982;BME280;26708;50.304;19.028;2022-11-15T15:14:51;97981.84;;;14.17;65.98
40982;BME280;26708;50.304;19.028;2022-11-15T15:17:52;97984.47;;;14.15;65.39
40982;BME280;26708;50.304;19.028;2022-11-15T15:20:56;97976.63;;;14.14;65.81
40982;BME280;26708;50.304;19.028;2022-11-15T15:23:57;97944.66;;;13.94;65.90
40982;BME280;26708;50.304;19.028;2022-11-15T15:26:58;97958.50;;;14.00;65.80
40982;BME280;26708;50.304;19.028;2022-11-15T15:29:59;97974.19;;;14.03;66.64
40982;BME280;26708;50.304;19.028;2022-11-15T15:33:00;97929.13;;;13.79;66.69
40982;BME280;26708;50.304;19.028;2022-11-15T15:36:00;97974.19;;;14.02;66.56
40982;BME280;26708;50.304;19.028;2022-11-15T15:39:01;97953.41;;;13.90;66.70
40982;BME280;26708;50.304;19.028;2022-11-15T15:42:02;97962.97;;;13.92;67.18
40982;BME280;26708;50.304;19.028;2022-11-15T15:45:04;97953.44;;;13.87;67.33
40982;BME280;26708;50.304;19.028;2022-11-15T15:48:05;97951.72;;;13.84;67.45
40982;BME280;26708;50.304;19.028;2022-11-15T15:51:06;97964.69;;;13.95;67.16
40982;BME280;26708;50.304;19.028;2022-11-15T15:54:07;97969.94;;;13.93;67.63
40982;BME280;26708;50.304;19.028;2022-11-15T15:57:11;97961.25;;;13.91;67.70
40982;BME280;26708;50.304;19.028;2022-11-15T16:00:13;97967.34;;;13.92;67.48
40982;BME280;26708;50.304;19.028;2022-11-15T16:03:14;97954.41;;;13.80;67.45
40982;BME280;26708;50.304;19.028;2022-11-15T16:06:33;97964.75;;;13.92;67.50
